»·PEaware :: N1ST KBIL-KBOI

N1ST :: KBIL-KBOI

FLIGHT INFORMATION

Flight Status: Arrived
Operator: Privately registered:
United States
More flights under this callsign
Pilot: Anonymous 36068 (36068)
Aircraft: BEECH AIRCRAFT PREMIER
(PRM1)
More flights by this aircraft type
Origin: KBIL Billings Logan Intl
United States
Destination: KBOI Boise Air Terminal/Gowen
United States
More flights between these airports :: More routes between these airports
Route: BIL PIH REAPS KOURT3
File this flight plan on PilotEdge
Remarks:
Altitude:
(Current/Filed)
32,000ft
Speed:
(Current/Filed)
400kts
Departed: 12-Sep-21 08:48 PM
Arrived: 12-Sep-21 10:07 PM
Distance/Time
Traveled:
354nm/1:19
Distance/Time
To Go:
Arrived

Flight Plot

Page will automatically refresh every two minutes.

Flight plan parsing failed; only flown route is shown


Map Options




Map Legend


Flown Route
Filed Route
Departure Airport
Arrival Airport
Navaid (VOR, NDB)
Fix

Horizontal Profiles

Position Reports

Time Latitude Longitude Heading Altitude Ground
Speed
12-Sep-21 20:29 45.803027 -108.528085 270 3658ft 0kts
12-Sep-21 20:30 45.803027 -108.528085 270 3658ft 0kts
12-Sep-21 20:31 45.803027 -108.528085 270 3658ft 0kts
12-Sep-21 20:32 45.803027 -108.528085 270 3658ft 0kts
12-Sep-21 20:33 45.803027 -108.528085 270 3658ft 0kts
12-Sep-21 20:35 45.803027 -108.528085 270 3658ft 0kts
12-Sep-21 20:35 45.803027 -108.528085 270 3658ft 0kts
12-Sep-21 20:36 45.803027 -108.528085 270 3658ft 0kts
12-Sep-21 20:37 45.803027 -108.528085 270 3658ft 0kts
12-Sep-21 20:38 45.803027 -108.528085 270 3658ft 0kts
12-Sep-21 20:39 45.803759 -108.526929 92 3658ft 8kts
12-Sep-21 20:40 45.802535 -108.522570 110 3658ft 6kts
12-Sep-21 20:41 45.801326 -108.518530 112 3658ft 7kts
12-Sep-21 20:42 45.801166 -108.517496 64 3658ft 0kts
12-Sep-21 20:43 45.801166 -108.517496 64 3658ft 0kts
12-Sep-21 20:44 45.801166 -108.517496 64 3658ft 0kts
12-Sep-21 20:45 45.801166 -108.517496 64 3658ft 0kts
12-Sep-21 20:46 45.802244 -108.517182 292 3658ft 11kts
12-Sep-21 20:47 45.815129 -108.566122 292 4769ft 195kts
12-Sep-21 20:48 45.839751 -108.650653 292 6693ft 271kts
12-Sep-21 20:49 45.861157 -108.751277 246 8479ft 261kts
12-Sep-21 20:50 45.805162 -108.806506 223 11877ft 257kts
12-Sep-21 20:51 45.753151 -108.879542 224 14632ft 268kts
12-Sep-21 20:52 45.699100 -108.955436 224 17100ft 279kts
12-Sep-21 20:53 45.642639 -109.034475 224 19322ft 290kts
12-Sep-21 20:54 45.584466 -109.115666 224 21309ft 299kts
12-Sep-21 20:55 45.523983 -109.199810 224 23116ft 308kts
12-Sep-21 20:56 45.461750 -109.286117 224 24751ft 317kts
12-Sep-21 20:57 45.397805 -109.374510 224 26235ft 325kts
12-Sep-21 20:58 45.332353 -109.464682 224 27575ft 332kts
12-Sep-21 20:59 45.265402 -109.556601 224 29021ft 332kts
12-Sep-21 21:00 45.199766 -109.646407 224 30567ft 324kts
12-Sep-21 21:01 45.135051 -109.734654 223 31738ft 327kts
12-Sep-21 21:02 45.067323 -109.826700 223 32033ft 355kts
12-Sep-21 21:03 44.993246 -109.927014 223 32032ft 384kts
12-Sep-21 21:04 44.913823 -110.034149 223 32030ft 407kts
12-Sep-21 21:05 44.830349 -110.146281 223 32027ft 418kts
12-Sep-21 21:06 44.746127 -110.258940 223 32027ft 417kts
12-Sep-21 21:07 44.662142 -110.370810 223 32027ft 417kts
12-Sep-21 21:08 44.578224 -110.482124 223 32027ft 416kts
12-Sep-21 21:09 44.493989 -110.593400 223 32027ft 416kts
12-Sep-21 21:10 44.409572 -110.704445 222 32027ft 416kts
12-Sep-21 21:11 44.325211 -110.814997 222 32027ft 416kts
12-Sep-21 21:12 44.240670 -110.925245 222 32027ft 417kts
12-Sep-21 21:13 44.156140 -111.035056 222 32027ft 417kts
12-Sep-21 21:14 44.071107 -111.145078 222 32027ft 417kts
12-Sep-21 21:15 43.986102 -111.254612 222 32027ft 417kts
12-Sep-21 21:16 43.901020 -111.363797 222 32027ft 418kts
12-Sep-21 21:17 43.815848 -111.472649 222 32027ft 418kts
12-Sep-21 21:18 43.730317 -111.581562 222 32027ft 418kts
12-Sep-21 21:19 43.644945 -111.689790 222 32027ft 418kts
12-Sep-21 21:20 43.559500 -111.797676 222 32027ft 418kts
12-Sep-21 21:21 43.473928 -111.905287 222 32027ft 418kts
12-Sep-21 21:22 43.387713 -112.013271 222 32027ft 418kts
12-Sep-21 21:23 43.301949 -112.120262 222 32027ft 418kts
12-Sep-21 21:24 43.215836 -112.227261 222 32027ft 418kts
12-Sep-21 21:25 43.129363 -112.334279 222 32027ft 418kts
12-Sep-21 21:26 43.043185 -112.440510 222 32027ft 418kts
12-Sep-21 21:27 42.956626 -112.546790 222 32027ft 418kts
12-Sep-21 21:28 42.886630 -112.668682 256 32040ft 417kts
12-Sep-21 21:29 42.906053 -112.822428 285 32027ft 417kts
12-Sep-21 21:30 42.937742 -112.974619 285 32027ft 418kts
12-Sep-21 21:31 42.969267 -113.127299 285 32027ft 418kts
12-Sep-21 21:32 43.000556 -113.279973 285 32027ft 419kts
12-Sep-21 21:33 43.031748 -113.433300 285 32027ft 419kts
12-Sep-21 21:34 43.062639 -113.586386 285 30150ft 414kts
12-Sep-21 21:35 43.092511 -113.735471 285 27147ft 401kts
12-Sep-21 21:36 43.121324 -113.880350 285 24188ft 387kts
12-Sep-21 21:37 43.147505 -114.012922 285 24024ft 349kts
12-Sep-21 21:38 43.173026 -114.143027 285 23260ft 366kts
12-Sep-21 21:39 43.199501 -114.278936 285 20765ft 370kts
12-Sep-21 21:40 43.225578 -114.413741 285 19034ft 354kts
12-Sep-21 21:41 43.251117 -114.546667 285 19028ft 367kts
12-Sep-21 21:42 43.275555 -114.674709 284 17306ft 329kts
12-Sep-21 21:43 43.298273 -114.794487 284 15213ft 331kts
12-Sep-21 21:44 43.321327 -114.916808 284 13981ft 318kts
12-Sep-21 21:45 43.342891 -115.031946 284 13981ft 311kts
12-Sep-21 21:46 43.364297 -115.147015 284 13794ft 315kts
12-Sep-21 21:47 43.385114 -115.259999 284 12500ft 286kts
12-Sep-21 21:48 43.403038 -115.357524 284 12030ft 258kts
12-Sep-21 21:49 43.421165 -115.456464 284 10192ft 276kts
12-Sep-21 21:50 43.438445 -115.551138 284 9623ft 245kts
12-Sep-21 21:51 43.460267 -115.635898 294 9161ft 240kts
12-Sep-21 21:52 43.486217 -115.715676 293 8867ft 211kts
12-Sep-21 21:53 43.510812 -115.791470 293 8087ft 215kts
12-Sep-21 21:54 43.533748 -115.862353 293 8078ft 191kts
12-Sep-21 21:55 43.554727 -115.927379 293 8081ft 182kts
12-Sep-21 21:56 43.575614 -115.992253 293 8082ft 186kts
12-Sep-21 21:57 43.597242 -116.059061 294 7909ft 197kts
12-Sep-21 21:58 43.621058 -116.132155 294 7230ft 223kts
12-Sep-21 21:59 43.643806 -116.214880 287 6348ft 236kts
12-Sep-21 22:00 43.663491 -116.302274 287 5456ft 241kts
12-Sep-21 22:01 43.675914 -116.387243 236 4985ft 209kts
12-Sep-21 22:02 43.626921 -116.400487 167 4974ft 162kts
12-Sep-21 22:03 43.607275 -116.352226 113 4556ft 152kts
12-Sep-21 22:04 43.590852 -116.303640 114 3806ft 131kts
12-Sep-21 22:05 43.575835 -116.259656 115 3131ft 124kts
12-Sep-21 22:06 43.564205 -116.225544 115 2847ft 18kts
12-Sep-21 22:07 43.566143 -116.224026 3 2848ft 0kts
12-Sep-21 22:08 43.566631 -116.223902 47 2848ft 8kts
12-Sep-21 22:09 43.567003 -116.220842 22 2851ft 4kts
12-Sep-21 22:10 43.567313 -116.220664 19 2850ft 0kts
12-Sep-21 22:11 43.567313 -116.220664 19 2850ft 0kts

Navigation Log

Ident Type
Flight plan parsing failed, navigation log unavailable